Terminal Aerodrome Forecast
Issued by NWS Blacksburg, VA

Home | Current Version | Previous Version | Text Only | Print | Product List | Glossary On
Versions: 1 2 3 4 5 6 7 8 9 10 11 12 13 14 15 16 17 18 19 20 21 22 23 24 25 26 27 28 29 30
000
FTUS41 KRNK 221507 AAA
TAFLYH
TAF AMD
KLYH 221507Z 2215/2312 03010KT 5SM -RA SCT004 OVC015
      TEMPO 2215/2217 2SM -FZRA BR
     FM222000 03005KT 6SM BR OVC012
     FM230000 04003KT 4SM BR OVC007
     FM230700 06003KT 4SM -DZ BR OVC003=

USA.gov is the U.S. government's official web portal to all federal, state and local government web resources and services.